Stations météo

réclame
Mon MeteoGroup
Aberdeen/Dyce, Grande-Bretagne (3091): Température de l'air & dewpoint: 20.09.2018 10:00:00 - 26.09.2018 10:00:00 (BST)Aberdeen/Dyce, Grande-Bretagne (3091): Température de l'air -20cm & Température de l'air -100cm: 20.09.2018 10:00:00 - 26.09.2018 10:00:00 (BST)Aberdeen/Dyce, Grande-Bretagne (3091): Vitesse du vent & gusts: 20.09.2018 10:00:00 - 26.09.2018 10:00:00 (BST)Aberdeen/Dyce, Grande-Bretagne (3091): Direction du vent: 20.09.2018 10:00:00 - 26.09.2018 10:00:00 (BST)Aberdeen/Dyce, Grande-Bretagne (3091): reduced air pressure: 20.09.2018 10:00:00 - 26.09.2018 10:00:00 (BST)Aberdeen/Dyce, Grande-Bretagne (3091): visibility: 20.09.2018 10:00:00 - 26.09.2018 10:00:00 (BST)Aberdeen/Dyce, Grande-Bretagne (3091): Ensoleillement: 20.09.2018 10:00:00 - 26.09.2018 10:00:00 (BST)Aberdeen/Dyce, Grande-Bretagne (3091): Quantités de précipitations: 20.09.2018 10:00:00 - 26.09.2018 10:00:00 (BST)
Date & Time tt [°C] td [°C] tt -20cm [°C] tt -100cm [°C] ff [km/h] ff [knt] fx [km/h] fx [knt] dd ppp [hPa] vv [km] sd [min] rr [mm]
26.09.2018 10:00:00 18,0 13,0 - - 18 10 - - W - 10 - -
26.09.2018 09:00:00 17,0 13,0 - - 11 6 - - WSW - 10 - -
26.09.2018 08:00:00 16,0 12,0 - - 13 7 - - SW - 10 - -
26.09.2018 07:00:00 15,0 12,0 - - 18 10 - - SW - 10 - -
26.09.2018 06:00:00 15,0 11,0 - - 21 11 - - SW - 10 - -
26.09.2018 05:00:00 15,0 11,0 - - 29 16 - - SSW - 10 - -
26.09.2018 04:00:00 15,0 11,0 - - 28 15 - - SW - 10 - -
26.09.2018 03:00:00 15,0 11,0 - - 26 14 - - SW - 10 - -
26.09.2018 02:00:00 15,0 11,0 - - 35 19 - - SW - 10 - -
26.09.2018 01:00:00 15,0 10,0 - - 21 11 - - SW - 10 - -
26.09.2018 00:00:00 15,0 10,0 - - 24 13 - - SW - 10 - -
25.09.2018 23:00:00 13,0 10,0 - - 34 18 - - SSW - 10 - -
25.09.2018 22:00:00 13,0 9,0 - - 35 19 - - SSW - 10 - -
25.09.2018 21:00:00 12,0 9,0 - - 28 15 - - SSW - 10 - -
25.09.2018 20:00:00 12,0 8,0 - - 31 17 - - SSW - 10 - -
25.09.2018 19:00:00 12,0 8,0 - - 31 17 - - SSW - 10 - -
25.09.2018 18:00:00 12,0 7,0 - - 29 16 - - SSW - 10 - -
25.09.2018 17:00:00 12,0 6,0 - - 42 23 - - SSW - 10 - -
25.09.2018 16:00:00 12,0 7,0 - - 41 22 - - SSW - 10 - -
25.09.2018 15:00:00 11,0 7,0 - - 34 18 - - S - 10 - -
25.09.2018 14:00:00 12,0 5,0 - - 39 21 - - SSW - 10 - -
25.09.2018 13:00:00 12,0 4,0 - - 22 12 - - SSW - 10 - -
25.09.2018 12:00:00 12,0 5,0 - - 29 16 - - S - 10 - -
25.09.2018 11:00:00 11,0 6,0 - - 26 14 - - S - 10 - -
25.09.2018 10:00:00 10,0 6,0 - - 29 16 - - S - 10 - -
25.09.2018 09:00:00 9,0 6,0 - - 18 10 - - S - 10 - -
25.09.2018 08:00:00 8,0 4,0 - - 11 6 - - S - 10 - -
25.09.2018 07:00:00 8,0 4,0 - - 15 8 - - SW - 10 - -
25.09.2018 06:00:00 8,0 5,0 - - 11 6 - - SSW - 10 - -
25.09.2018 05:00:00 8,0 4,0 - - 8 4 - - SW - 10 - -
25.09.2018 04:00:00 8,0 4,0 - - 13 7 - - SSW - 10 - -
25.09.2018 03:00:00 9,0 5,0 - - 11 6 - - SW - 10 - -
25.09.2018 02:00:00 8,0 5,0 - - 8 4 - - S - 10 - -
25.09.2018 01:00:00 8,0 4,0 - - 8 4 - - SSW - 10 - -
25.09.2018 00:00:00 9,0 5,0 - - 8 4 - - S - 10 - -
24.09.2018 23:00:00 10,0 5,0 - - 8 4 - - SSW - 10 - -
24.09.2018 22:00:00 10,0 5,0 - - 9 5 - - WSW - 10 - -
24.09.2018 21:00:00 10,0 4,0 - - 8 4 - - - - 10 - -
24.09.2018 20:00:00 11,0 4,0 - - 11 6 - - W - 10 - -
24.09.2018 19:00:00 12,0 4,0 - - 9 5 - - W - 10 - -
24.09.2018 18:00:00 13,0 4,0 - - 15 8 - - WNW - 10 - -
24.09.2018 17:00:00 13,0 4,0 - - 15 8 - - NW - 10 - -
24.09.2018 16:00:00 13,0 4,0 - - 15 8 - - NW - 10 - -
24.09.2018 15:00:00 13,0 3,0 - - 22 12 - - WNW - 10 - -
24.09.2018 14:00:00 12,0 3,0 - - 15 8 - - W - 10 - -
24.09.2018 13:00:00 13,0 3,0 - - 21 11 - - W - 10 - -
24.09.2018 12:00:00 12,0 4,0 - - 18 10 - - WNW - 10 - -
24.09.2018 11:00:00 11,0 4,0 - - 22 12 - - W - 10 - -
24.09.2018 10:00:00 10,0 4,0 - - 24 13 - - W - 10 - -
24.09.2018 09:00:00 8,0 4,0 - - 21 11 - - W - 10 - -
24.09.2018 08:00:00 7,0 3,0 - - 24 13 - - W - 10 - -
24.09.2018 07:00:00 6,0 2,0 - - 16 9 - - WSW - 10 - -
24.09.2018 06:00:00 6,0 2,0 - - 15 8 - - SW - 10 - -
24.09.2018 05:00:00 6,0 2,0 - - 18 10 - - W - 10 - -
24.09.2018 04:00:00 7,0 2,0 - - 21 11 - - W - 10 - -
24.09.2018 03:00:00 7,0 2,0 - - 22 12 - - W - 10 - -
24.09.2018 02:00:00 6,0 2,0 - - 18 10 - - W - 10 - -
24.09.2018 01:00:00 6,0 2,0 - - 18 10 - - W - 10 - -
24.09.2018 00:00:00 6,0 2,0 - - 22 12 - - W - 10 - -
23.09.2018 23:00:00 7,0 3,0 - - 29 16 - - WNW - 10 - -
23.09.2018 22:00:00 7,0 3,0 - - 26 14 - - WNW - 10 - -
23.09.2018 21:00:00 7,0 4,0 - - 22 12 - - WNW - 10 - -
23.09.2018 20:00:00 7,0 5,0 - - 9 5 - - WSW - 10 - -
23.09.2018 19:00:00 8,0 5,0 - - 13 7 - - W - 10 - -
23.09.2018 18:00:00 9,0 4,0 - - 15 8 - - WNW - 10 - -
23.09.2018 17:00:00 10,0 4,0 - - 21 11 - - WNW - 10 - -
23.09.2018 16:00:00 10,0 5,0 - - 21 11 - - WNW - 10 - -
23.09.2018 15:00:00 12,0 3,0 - - 26 14 - - NW - 10 - -
23.09.2018 14:00:00 12,0 4,0 - - 28 15 - - NNW - 10 - -
23.09.2018 13:00:00 12,0 4,0 - - 28 15 - - NW - 10 - -
23.09.2018 12:00:00 11,0 4,0 - - 26 14 - - NW - 10 - -
23.09.2018 11:00:00 11,0 4,0 - - 18 10 - - WNW - 10 - -
23.09.2018 10:00:00 9,0 4,0 - - 16 9 - - W - 10 - -
23.09.2018 09:00:00 8,0 4,0 - - 16 9 - - W - 10 - -
23.09.2018 08:00:00 7,0 3,0 - - 16 9 - - W - 10 - -
23.09.2018 07:00:00 4,0 2,0 - - 15 8 - - W - 10 - -
23.09.2018 06:00:00 4,0 2,0 - - 9 5 - - W - 10 - -
23.09.2018 05:00:00 4,0 2,0 - - 4 2 - - - - 10 - -
23.09.2018 04:00:00 5,0 2,0 - - 5 3 - - - - 10 - -
23.09.2018 03:00:00 4,0 2,0 - - 2 1 - - - - 10 - -
23.09.2018 02:00:00 6,0 3,0 - - 15 8 - - WNW - 10 - -
23.09.2018 01:00:00 7,0 3,0 - - 21 11 - - WNW - 10 - -
23.09.2018 00:00:00 7,0 4,0 - - 16 9 - - WNW - 10 - -
22.09.2018 23:00:00 7,0 4,0 - - 15 8 - - NW - 10 - -
22.09.2018 22:00:00 7,0 4,0 - - 13 7 - - W - 10 - -
22.09.2018 21:00:00 8,0 4,0 - - 15 8 - - W - 10 - -
22.09.2018 20:00:00 9,0 5,0 - - 11 6 - - WSW - 10 - -
22.09.2018 19:00:00 10,0 5,0 - - 15 8 - - WNW - 10 - -
22.09.2018 18:00:00 11,0 5,0 - - 22 12 - - NW - 10 - -
22.09.2018 17:00:00 12,0 4,0 - - 21 11 - - WNW - 10 - -
22.09.2018 16:00:00 12,0 6,0 - - 18 10 - - NW - 10 - -
22.09.2018 15:00:00 12,0 6,0 - - 22 12 - - NW - 10 - -
22.09.2018 14:00:00 14,0 5,0 - - 29 16 - - W - 10 - -
22.09.2018 13:00:00 13,0 5,0 - - 24 13 - - W - 10 - -
22.09.2018 12:00:00 12,0 5,0 - - 26 14 - - WNW - 10 - -
22.09.2018 11:00:00 12,0 5,0 - - 31 17 - - W - 10 - -
22.09.2018 10:00:00 11,0 4,0 - - 28 15 - - W - 10 - -
22.09.2018 09:00:00 10,0 3,0 - - 29 16 - - W - 10 - -
22.09.2018 08:00:00 8,0 2,0 - - 24 13 - - W - 10 - -
22.09.2018 07:00:00 7,0 2,0 - - 18 10 - - SW - 10 - -
22.09.2018 06:00:00 7,0 2,0 - - 15 8 - - SW - 10 - -
22.09.2018 05:00:00 7,0 2,0 - - 22 12 - - WSW - 10 - -
22.09.2018 04:00:00 8,0 3,0 - - 21 11 - - WSW - 10 - -
22.09.2018 03:00:00 8,0 2,0 - - 22 12 - - W - 10 - -
22.09.2018 02:00:00 6,0 2,0 - - 13 7 - - SW - 10 - -
22.09.2018 01:00:00 7,0 2,0 - - 16 9 - - W - 10 - -
22.09.2018 00:00:00 8,0 3,0 - - 13 7 - - WSW - 10 - -
21.09.2018 23:00:00 7,0 3,0 - - 18 10 - - WSW - 10 - -
21.09.2018 22:00:00 7,0 3,0 - - 11 6 - - W - 10 - -
21.09.2018 21:00:00 9,0 4,0 - - 15 8 - - WSW - 10 - -
21.09.2018 20:00:00 9,0 3,0 - - 13 7 - - WSW - 10 - -
21.09.2018 19:00:00 10,0 4,0 - - 13 7 - - W - 10 - -
21.09.2018 18:00:00 11,0 4,0 - - 26 14 - - W - 10 - -
21.09.2018 17:00:00 10,0 5,0 - - 21 11 - - WNW - 10 - -
21.09.2018 16:00:00 10,0 6,0 - - 26 14 - - WNW - 10 - -
21.09.2018 15:00:00 9,0 6,0 - - 29 16 - - NW - 10 - -
21.09.2018 14:00:00 10,0 6,0 - - 28 15 - - NW - 10 - -
21.09.2018 13:00:00 10,0 6,0 - - 35 19 - - NW - 10 - -
21.09.2018 12:00:00 9,0 6,0 - - 35 19 - - NW - 7 - -
21.09.2018 11:00:00 8,0 6,0 - - 31 17 - - WNW - 7 - -
21.09.2018 10:00:00 8,0 5,0 - - 39 21 - - WNW - 10 - -
21.09.2018 09:00:00 8,0 5,0 - - 29 16 - - WNW - 10 - -
21.09.2018 08:00:00 8,0 5,0 - - 28 15 - - WNW - 10 - -
21.09.2018 07:00:00 8,0 5,0 - - 34 18 - - WNW - 10 - -
21.09.2018 06:00:00 8,0 5,0 - - 31 17 - - WNW - 10 - -
21.09.2018 05:00:00 8,0 6,0 - - 26 14 - - WNW - 10 - -
21.09.2018 04:00:00 8,0 6,0 - - 16 9 - - NW - 5 - -
21.09.2018 03:00:00 8,0 6,0 - - 16 9 - - NW - 10 - -
21.09.2018 02:00:00 8,0 6,0 - - 13 7 - - NW - 10 - -
21.09.2018 01:00:00 9,0 7,0 - - 5 3 - - - - 10 - -
21.09.2018 00:00:00 9,0 6,0 - - 5 3 - - NNE - 10 - -
20.09.2018 23:00:00 9,0 6,0 - - 5 3 - - - - 10 - -
20.09.2018 22:00:00 10,0 6,0 - - 5 3 - - - - 10 - -
20.09.2018 21:00:00 10,0 6,0 - - 13 7 - - SW - 10 - -
20.09.2018 20:00:00 11,0 6,0 - - 9 5 - - SSW - 10 - -
20.09.2018 19:00:00 11,0 5,0 - - 15 8 - - SSW - 10 - -
20.09.2018 18:00:00 12,0 5,0 - - 16 9 - - SSW - 10 - -
20.09.2018 17:00:00 12,0 6,0 - - 21 11 - - S - 10 - -
20.09.2018 16:00:00 13,0 6,0 - - 24 13 - - S - 10 - -
20.09.2018 15:00:00 14,0 4,0 - - 24 13 - - SSW - 10 - -
20.09.2018 14:00:00 14,0 4,0 - - 24 13 - - SSW - 10 - -
20.09.2018 13:00:00 15,0 4,0 - - 22 12 - - SSW - 10 - -
20.09.2018 12:00:00 13,0 5,0 - - 35 19 - - SW - 10 - -
20.09.2018 11:00:00 13,0 5,0 - - 42 23 - - SW - 10 - -
20.09.2018 10:00:00 11,5 4,4 12,9 13,2 39 21 59 32 SW 999,8 10 60 0,0

tt = Température de l'air
td = dewpoint
tt -20cm = Température de l'air -20cm
tt -100cm = Température de l'air -100cm
ff = Vitesse du vent
fx = gusts
dd = Direction du vent
ppp = reduced air pressure
vv = visibility
sd = Ensoleillement
rr = Quantités de précipitations

stations d'obs. à proximité